createdAt,value
2022-12-18T13:28:48.841Z,55.87
2022-12-18T13:33:56.259Z,37.96
2022-12-18T13:38:46.744Z,54.50
2022-12-18T13:42:57.436Z,63.78
2022-12-18T13:45:41.271Z,70.82
2022-12-18T13:48:15.673Z,78.60
2022-12-18T13:50:42.971Z,81.73
2022-12-18T13:54:03.903Z,83.79
2022-12-18T13:56:34.461Z,86.66
2022-12-18T13:59:07.012Z,88.35
2022-12-18T14:01:33.916Z,90.96
2022-12-18T14:04:11.206Z,91.78
2022-12-18T14:06:39.763Z,91.52
2022-12-18T14:09:11.665Z,92.72
2022-12-18T14:11:39.844Z,93.37
2022-12-18T14:14:08.382Z,90.75
2022-12-18T14:16:35.113Z,91.03
2022-12-18T14:19:14.365Z,91.38
2022-12-18T14:21:51.081Z,93.29
2022-12-18T14:24:21.264Z,95.12
2022-12-18T14:26:48.762Z,95.49
2022-12-18T14:29:20.029Z,95.56
2022-12-18T14:32:04.688Z,96.71
2022-12-18T14:34:32.293Z,96.94
2022-12-18T14:36:58.986Z,98.13
2022-12-18T14:39:26.501Z,97.32
2022-12-18T14:41:54.098Z,97.18
2022-12-18T14:44:22.260Z,98.12
2022-12-18T14:46:50.382Z,97.56
2022-12-18T14:49:22.176Z,97.23
2022-12-18T14:51:56.422Z,98.56
2022-12-18T14:54:24.532Z,98.67
2022-12-18T14:56:57.591Z,100.00
2022-12-18T14:59:25.536Z,100.00
2022-12-18T15:01:59.497Z,100.00
2022-12-18T15:04:28.807Z,100.00
2022-12-18T15:07:07.667Z,100.00
2022-12-18T15:09:34.290Z,100.00
2022-12-18T15:12:02.179Z,100.00
2022-12-18T15:14:42.691Z,100.00
2022-12-18T15:17:20.335Z,100.00
2022-12-18T15:19:49.376Z,100.00
2022-12-18T15:22:20.739Z,100.00
2022-12-18T15:24:48.959Z,100.00
2022-12-18T15:27:23.219Z,100.00
2022-12-18T15:30:01.940Z,100.00
2022-12-18T15:32:30.649Z,100.00
2022-12-18T15:35:10.898Z,100.00
2022-12-18T15:37:40.896Z,100.00
2022-12-18T15:40:15.642Z,100.00
2022-12-18T15:43:03.141Z,100.00
2022-12-18T15:45:29.752Z,100.00
2022-12-18T15:47:56.295Z,100.00
2022-12-18T15:50:23.259Z,100.00
2022-12-18T15:52:51.171Z,100.00
2022-12-18T15:55:41.779Z,100.00
2022-12-18T15:58:09.355Z,100.00
2022-12-18T16:00:36.551Z,100.00
2022-12-18T16:03:03.892Z,100.00
2022-12-18T16:05:30.851Z,100.00
2022-12-18T16:07:57.460Z,100.00
2022-12-18T16:10:25.123Z,100.00
2022-12-18T16:12:54.108Z,100.00
2022-12-18T16:15:24.456Z,100.00
2022-12-18T16:17:52.961Z,100.00
2022-12-18T16:20:21.619Z,100.00
2022-12-18T16:22:48.791Z,100.00
2022-12-18T16:25:23.422Z,100.00
2022-12-18T16:27:52.924Z,100.00
2022-12-18T16:30:21.307Z,100.00
2022-12-18T16:32:47.990Z,100.00
2022-12-18T16:35:16.833Z,100.00
2022-12-18T16:37:44.377Z,100.00
2022-12-18T16:40:12.190Z,100.00
2022-12-18T16:42:39.581Z,100.00
2022-12-18T16:45:07.407Z,100.00
2022-12-18T16:47:34.185Z,100.00
2022-12-18T16:50:02.298Z,100.00
2022-12-18T16:52:30.463Z,100.00
2022-12-18T16:54:56.997Z,100.00
2022-12-18T16:57:25.544Z,100.00
2022-12-18T16:59:52.372Z,100.00
2022-12-18T17:02:24.299Z,100.00
2022-12-18T17:04:58.798Z,100.00
2022-12-18T17:07:26.068Z,100.00
2022-12-18T17:09:54.323Z,100.00
2022-12-18T17:12:21.380Z,100.00
2022-12-18T17:14:47.803Z,100.00
2022-12-18T17:17:23.162Z,100.00
2022-12-18T17:19:50.757Z,100.00
2022-12-18T17:22:17.237Z,100.00
2022-12-18T17:24:43.731Z,100.00
2022-12-18T17:27:11.558Z,100.00
2022-12-18T17:29:41.261Z,100.00
2022-12-18T17:32:11.789Z,100.00
2022-12-18T17:34:40.768Z,100.00
2022-12-18T17:37:08.556Z,100.00
2022-12-18T17:39:35.096Z,100.00
2022-12-18T17:42:02.620Z,100.00
2022-12-18T17:44:29.197Z,100.00
2022-12-18T17:47:04.157Z,100.00
2022-12-18T17:49:30.980Z,100.00
2022-12-18T17:51:58.636Z,100.00
2022-12-18T17:54:25.174Z,100.00
2022-12-18T17:56:52.836Z,100.00
2022-12-18T17:59:19.397Z,100.00
2022-12-18T18:01:46.059Z,100.00
2022-12-18T18:04:13.228Z,100.00
2022-12-18T18:06:39.769Z,100.00
2022-12-18T18:09:16.421Z,100.00
2022-12-18T18:12:03.485Z,100.00
2022-12-18T18:14:31.517Z,100.00
2022-12-18T18:17:04.323Z,100.00
2022-12-18T18:19:33.451Z,100.00
2022-12-18T18:21:59.904Z,100.00
2022-12-18T18:24:28.111Z,100.00
2022-12-18T18:27:01.643Z,100.00
2022-12-18T18:29:30.708Z,100.00
2022-12-18T18:31:57.392Z,100.00
2022-12-18T18:34:25.245Z,100.00
2022-12-18T18:36:52.095Z,100.00
2022-12-18T18:39:18.648Z,100.00
2022-12-18T18:41:47.893Z,100.00
2022-12-18T18:44:15.457Z,100.00
2022-12-18T18:46:41.876Z,100.00
2022-12-18T18:49:08.300Z,100.00
2022-12-18T18:51:35.441Z,100.00
2022-12-18T18:54:02.238Z,100.00
2022-12-18T18:59:15.308Z,100.00
2022-12-18T19:01:42.011Z,100.00
2022-12-18T19:04:08.677Z,100.00
2022-12-18T19:06:35.176Z,100.00
2022-12-18T19:09:04.278Z,100.00
2022-12-18T19:11:49.260Z,100.00
2022-12-18T19:14:15.997Z,100.00
2022-12-18T19:16:43.122Z,100.00
2022-12-18T19:19:11.586Z,100.00
2022-12-18T19:21:38.318Z,100.00
2022-12-18T19:24:05.058Z,100.00
2022-12-18T19:26:31.738Z,100.00
2022-12-18T19:29:02.289Z,100.00
2022-12-18T19:31:35.058Z,100.00
2022-12-18T19:34:03.040Z,100.00
2022-12-18T19:36:29.923Z,100.00
2022-12-18T19:39:00.186Z,100.00
2022-12-18T19:41:29.175Z,100.00
2022-12-18T19:43:58.389Z,100.00
2022-12-18T19:46:25.003Z,100.00
2022-12-18T19:48:51.790Z,100.00
2022-12-18T19:51:20.053Z,100.00
2022-12-18T19:53:47.021Z,100.00
2022-12-18T19:56:15.420Z,100.00
2022-12-18T19:58:42.356Z,100.00
2022-12-18T20:01:11.811Z,100.00
2022-12-18T20:03:40.761Z,100.00
2022-12-18T20:06:09.401Z,100.00
2022-12-18T20:08:36.561Z,100.00
2022-12-18T20:11:03.062Z,100.00
2022-12-18T20:13:29.949Z,100.00
2022-12-18T20:15:56.679Z,100.00
2022-12-18T20:18:23.534Z,100.00
2022-12-18T20:20:50.159Z,100.00
2022-12-18T20:23:18.408Z,100.00
2022-12-18T20:25:46.468Z,100.00
2022-12-18T20:28:13.195Z,100.00
2022-12-18T20:30:39.790Z,100.00
2022-12-18T20:33:06.400Z,100.00
2022-12-18T20:35:33.161Z,100.00
2022-12-18T20:38:00.045Z,100.00
2022-12-18T20:40:27.715Z,100.00
2022-12-18T20:42:54.764Z,100.00
2022-12-18T20:45:22.318Z,100.00
2022-12-18T20:47:49.331Z,100.00
2022-12-18T20:50:15.917Z,100.00
2022-12-18T20:52:42.455Z,100.00
2022-12-18T20:55:09.099Z,100.00
2022-12-18T20:57:35.816Z,100.00
2022-12-18T21:00:06.834Z,100.00
2022-12-18T21:02:33.656Z,100.00
2022-12-18T21:05:00.294Z,100.00
2022-12-18T21:07:27.481Z,100.00
2022-12-18T21:09:54.117Z,100.00
2022-12-18T21:12:44.093Z,100.00
2022-12-18T21:15:14.738Z,100.00
2022-12-18T21:17:44.737Z,100.00
2022-12-18T21:20:17.995Z,100.00
2022-12-18T21:22:46.674Z,100.00
2022-12-18T21:25:12.987Z,100.00
2022-12-18T21:27:39.328Z,100.00
2022-12-18T21:30:06.082Z,100.00
2022-12-18T21:32:33.655Z,100.00
2022-12-18T21:35:00.136Z,100.00
2022-12-18T21:37:26.657Z,100.00
2022-12-18T21:39:53.087Z,100.00
2022-12-18T21:42:38.456Z,100.00
2022-12-18T21:45:04.978Z,100.00
2022-12-18T21:47:31.616Z,100.00
2022-12-18T21:49:58.060Z,100.00
2022-12-18T21:52:31.249Z,100.00
2022-12-18T21:55:06.151Z,100.00
2022-12-18T21:57:34.734Z,100.00
2022-12-18T22:00:02.297Z,100.00
2022-12-18T22:02:38.594Z,100.00
2022-12-18T22:05:05.241Z,100.00
2022-12-18T22:07:31.684Z,100.00
2022-12-18T22:09:58.181Z,100.00
2022-12-18T22:12:35.777Z,100.00
2022-12-18T22:15:10.031Z,100.00
2022-12-18T22:17:37.596Z,100.00
2022-12-18T22:20:04.075Z,100.00
2022-12-18T22:22:30.633Z,100.00
2022-12-18T22:24:57.076Z,100.00
2022-12-18T22:27:23.443Z,100.00
2022-12-18T22:30:05.171Z,100.00
2022-12-18T22:32:38.082Z,100.00
2022-12-18T22:35:09.465Z,100.00
2022-12-18T22:37:37.152Z,100.00
2022-12-18T22:40:04.400Z,100.00
2022-12-18T22:42:31.386Z,100.00
2022-12-18T22:44:57.741Z,100.00
2022-12-18T22:47:29.237Z,100.00
2022-12-18T22:49:56.447Z,100.00
2022-12-18T22:52:23.434Z,100.00
2022-12-18T22:54:51.366Z,100.00
2022-12-18T22:57:19.860Z,100.00
2022-12-18T22:59:46.212Z,100.00
2022-12-18T23:02:12.687Z,100.00
2022-12-18T23:04:39.728Z,100.00
2022-12-18T23:07:07.404Z,100.00
2022-12-18T23:09:33.908Z,100.00
2022-12-18T23:12:00.299Z,100.00
2022-12-18T23:14:27.290Z,100.00
2022-12-18T23:16:53.595Z,100.00
2022-12-18T23:19:20.083Z,100.00
2022-12-18T23:21:46.480Z,100.00
2022-12-18T23:24:12.872Z,100.00
2022-12-18T23:26:39.226Z,100.00
2022-12-18T23:29:05.857Z,100.00
2022-12-18T23:31:33.713Z,100.00
2022-12-18T23:34:00.916Z,100.00
2022-12-18T23:36:27.666Z,100.00
2022-12-18T23:38:57.315Z,100.00
2022-12-18T23:41:24.902Z,100.00
2022-12-18T23:43:52.452Z,100.00
2022-12-18T23:46:23.496Z,100.00
2022-12-18T23:48:50.767Z,100.00
2022-12-18T23:51:18.110Z,100.00
2022-12-18T23:53:45.349Z,100.00
2022-12-18T23:56:12.514Z,100.00
2022-12-18T23:58:42.603Z,100.00
